الصفحة الرئيسية
METAR-TAF:

METAR-TAF

مطار :

مطار سيشل الدولي

فيكتوريا, ماهيه, سيشيل

دائرة عرض: 04-40S, خط طول: 055-31E, ارتفاع: 3 متر

مراقبة الطقس الحالي

تاريخ ووقت الإصدار 15 دقيقة قبل الساعة 07:00UTC
ريح 5 عقدة من الشمال الشرقي
درجة الحرارة 31°درجة مئوية
الرطوبة 71%
ضغط 1011 hPa
الرؤية 10 كم أو أكثر
غيوم متفرقة على ارتفاع 2200 قدم

METAR: FSIA 150700Z 04005KT 9999 SCT022 31/25 Q1011 NOSIG

زمن: 11:15 (07:15 UTC)

توقعات

تاريخ ووقت الإصدار 2ساعات و 13 دقيقة قبل الساعة 05:02UTC
التوقعات صالحة من15 الساعة 06 UTC إلى 16 الساعة 06 UTC
ريح 5 عقدةمن اتجاهات متغيرة
الرؤية 10 كم أو أكثر
غيوم متفرقة على ارتفاع 2000 قدم
مؤقت
من 15 الساعة 12 UTC إلى 15 الساعة 16 UTC
غيوم قليلة على ارتفاع 1800 قدم, مزنة ركامية.
غيوم مفككة على ارتفاع 2000 قدم
زخات من المطر
مؤقت
من 15 الساعة 22 UTC إلى 16 الساعة 06 UTC
الرؤية: 8000 متر
غيوم قليلة على ارتفاع 1200 قدم
غيوم قليلة على ارتفاع 1600 قدم, مزنة ركامية.
غيوم مفككة على ارتفاع 1800 قدم
زخات من المطر

TAF: FSIA 150502Z 1506/1606 VRB05KT 9999 SCT020 TEMPO 1512/1516 SHRA FEW018CB BKN020 TEMPO 1522/1606 8000 SHRA FEW012 FEW016CB BKN018

أرصاد الطقس والتوقعات من أكثر من 4000 مطار (تقارير الطقس للمطار METAR والتنبؤ بالطقس بالمطارTAF).

المحطات المتاحة هي النقط الصفراء والحمراء على الخريطة.

حرك المؤشر فوق النقطة لمعرفة اسم المحطة.

ثم انقر لمعرفة أرصاد وتوقعات الطقس.

لتغيير الخارطة: اضغط على الأزرار الخضراء مع رمز الصليب الأسود للتكبير. على الزر الأخضر مع شرطة للتصغير، أو على الأسهم الخضراء للخرائط المجاورة.


METAR-TAF: